sensor_id;sensor_type;location;lat;lon;timestamp;pressure;altitude;pressure_sealevel;temperature;humidity
33161;BME280;19522;45.656;11.302;2023-05-01T00:00:32;98325.91;;;15.10;66.61
33161;BME280;19522;45.656;11.302;2023-05-01T00:02:58;98324.38;;;15.21;66.89
33161;BME280;19522;45.656;11.302;2023-05-01T00:05:23;98302.19;;;15.04;68.26
33161;BME280;19522;45.656;11.302;2023-05-01T00:07:49;98324.94;;;15.05;67.56
33161;BME280;19522;45.656;11.302;2023-05-01T00:10:14;98341.06;;;15.13;68.85
33161;BME280;19522;45.656;11.302;2023-05-01T00:12:40;98347.75;;;15.17;72.62
33161;BME280;19522;45.656;11.302;2023-05-01T00:15:06;98323.66;;;14.69;79.08
33161;BME280;19522;45.656;11.302;2023-05-01T00:17:32;98327.59;;;14.27;81.64
33161;BME280;19522;45.656;11.302;2023-05-01T00:19:57;98329.25;;;14.28;80.34
33161;BME280;19522;45.656;11.302;2023-05-01T00:22:23;98323.34;;;14.31;80.32
33161;BME280;19522;45.656;11.302;2023-05-01T00:24:48;98342.84;;;14.48;78.31
33161;BME280;19522;45.656;11.302;2023-05-01T00:27:14;98344.28;;;14.51;84.48
33161;BME280;19522;45.656;11.302;2023-05-01T00:29:40;98347.69;;;14.40;89.71
33161;BME280;19522;45.656;11.302;2023-05-01T00:32:06;98353.16;;;14.46;90.18
33161;BME280;19522;45.656;11.302;2023-05-01T00:34:31;98349.41;;;14.34;90.45
33161;BME280;19522;45.656;11.302;2023-05-01T00:36:57;98348.75;;;14.39;90.71
33161;BME280;19522;45.656;11.302;2023-05-01T00:39:23;98345.44;;;14.23;91.82
33161;BME280;19522;45.656;11.302;2023-05-01T00:41:48;98354.03;;;14.27;90.99
33161;BME280;19522;45.656;11.302;2023-05-01T00:44:14;98346.47;;;14.29;91.00
33161;BME280;19522;45.656;11.302;2023-05-01T00:46:40;98334.56;;;14.10;92.41
33161;BME280;19522;45.656;11.302;2023-05-01T00:49:08;98337.31;;;14.03;92.76
33161;BME280;19522;45.656;11.302;2023-05-01T00:51:34;98333.78;;;13.82;92.45
33161;BME280;19522;45.656;11.302;2023-05-01T00:54:00;98351.16;;;13.95;92.18
33161;BME280;19522;45.656;11.302;2023-05-01T00:56:27;98351.63;;;13.98;91.92
33161;BME280;19522;45.656;11.302;2023-05-01T00:58:52;98344.06;;;13.87;94.03
33161;BME280;19522;45.656;11.302;2023-05-01T01:01:21;98349.72;;;13.92;95.05
33161;BME280;19522;45.656;11.302;2023-05-01T01:03:48;98347.00;;;13.85;93.38
33161;BME280;19522;45.656;11.302;2023-05-01T01:12:19;98341.16;;;13.68;94.92
33161;BME280;19522;45.656;11.302;2023-05-01T01:14:57;98326.88;;;13.53;95.32
33161;BME280;19522;45.656;11.302;2023-05-01T01:17:50;98349.53;;;13.67;95.67
33161;BME280;19522;45.656;11.302;2023-05-01T01:20:48;98358.16;;;13.57;96.73
33161;BME280;19522;45.656;11.302;2023-05-01T01:34:35;98329.63;;;13.46;96.51
33161;BME280;19522;45.656;11.302;2023-05-01T01:37:10;98354.78;;;13.62;96.81
33161;BME280;19522;45.656;11.302;2023-05-01T01:42:09;98327.53;;;13.42;96.66
33161;BME280;19522;45.656;11.302;2023-05-01T01:44:41;98329.81;;;13.45;97.07
33161;BME280;19522;45.656;11.302;2023-05-01T01:47:12;98325.38;;;13.30;97.50
33161;BME280;19522;45.656;11.302;2023-05-01T01:49:42;98351.41;;;13.53;96.32
33161;BME280;19522;45.656;11.302;2023-05-01T01:52:12;98343.25;;;13.46;96.30
33161;BME280;19522;45.656;11.302;2023-05-01T01:54:42;98352.47;;;13.52;96.62
33161;BME280;19522;45.656;11.302;2023-05-01T01:57:11;98346.19;;;13.51;96.90
33161;BME280;19522;45.656;11.302;2023-05-01T01:59:39;98362.56;;;13.51;97.01
33161;BME280;19522;45.656;11.302;2023-05-01T02:02:06;98302.50;;;13.18;96.61
33161;BME280;19522;45.656;11.302;2023-05-01T02:04:33;98353.28;;;13.25;98.37
33161;BME280;19522;45.656;11.302;2023-05-01T02:07:01;98362.06;;;13.28;98.98
33161;BME280;19522;45.656;11.302;2023-05-01T02:09:29;98346.53;;;13.15;99.16
33161;BME280;19522;45.656;11.302;2023-05-01T02:11:56;98364.63;;;13.29;98.45
33161;BME280;19522;45.656;11.302;2023-05-01T02:14:25;98354.09;;;13.19;98.13
33161;BME280;19522;45.656;11.302;2023-05-01T02:16:51;98365.00;;;13.26;98.85
33161;BME280;19522;45.656;11.302;2023-05-01T02:19:18;98375.53;;;13.36;98.32
33161;BME280;19522;45.656;11.302;2023-05-01T02:21:44;98357.03;;;13.18;98.17
33161;BME280;19522;45.656;11.302;2023-05-01T02:24:11;98372.38;;;13.25;98.10
33161;BME280;19522;45.656;11.302;2023-05-01T02:26:41;98372.78;;;13.29;97.95
33161;BME280;19522;45.656;11.302;2023-05-01T02:29:08;98357.03;;;13.18;97.84
33161;BME280;19522;45.656;11.302;2023-05-01T02:31:34;98371.09;;;13.21;99.12
33161;BME280;19522;45.656;11.302;2023-05-01T02:34:00;98366.69;;;13.27;98.74
33161;BME280;19522;45.656;11.302;2023-05-01T02:36:56;98366.28;;;13.23;99.21
33161;BME280;19522;45.656;11.302;2023-05-01T02:39:22;98346.56;;;13.08;99.16
33161;BME280;19522;45.656;11.302;2023-05-01T02:41:48;98338.97;;;13.03;99.14
33161;BME280;19522;45.656;11.302;2023-05-01T02:44:15;98353.69;;;13.22;98.69
33161;BME280;19522;45.656;11.302;2023-05-01T02:46:44;98337.13;;;13.17;98.59
33161;BME280;19522;45.656;11.302;2023-05-01T02:49:11;98352.66;;;13.30;98.37
33161;BME280;19522;45.656;11.302;2023-05-01T02:51:38;98352.84;;;13.35;98.32
33161;BME280;19522;45.656;11.302;2023-05-01T02:54:05;98346.13;;;13.11;99.17
33161;BME280;19522;45.656;11.302;2023-05-01T02:56:32;98321.13;;;12.94;99.94
33161;BME280;19522;45.656;11.302;2023-05-01T02:58:57;98354.31;;;13.18;100.00
33161;BME280;19522;45.656;11.302;2023-05-01T03:01:23;98351.56;;;13.11;100.00
33161;BME280;19522;45.656;11.302;2023-05-01T03:03:48;98348.88;;;13.18;99.35
33161;BME280;19522;45.656;11.302;2023-05-01T03:06:14;98348.25;;;13.22;99.36
33161;BME280;19522;45.656;11.302;2023-05-01T03:08:39;98349.06;;;13.09;100.00
33161;BME280;19522;45.656;11.302;2023-05-01T03:11:06;98338.56;;;13.13;99.46
33161;BME280;19522;45.656;11.302;2023-05-01T03:13:32;98340.66;;;13.11;99.05
33161;BME280;19522;45.656;11.302;2023-05-01T03:15:58;98341.72;;;13.10;99.17
33161;BME280;19522;45.656;11.302;2023-05-01T03:18:24;98340.88;;;13.09;99.25
33161;BME280;19522;45.656;11.302;2023-05-01T03:20:53;98343.19;;;13.06;99.51
33161;BME280;19522;45.656;11.302;2023-05-01T03:23:21;98335.00;;;13.06;99.01
33161;BME280;19522;45.656;11.302;2023-05-01T03:25:47;98286.50;;;12.61;99.63
33161;BME280;19522;45.656;11.302;2023-05-01T03:28:13;98324.69;;;12.88;98.87
33161;BME280;19522;45.656;11.302;2023-05-01T03:30:38;98339.59;;;12.92;97.62
33161;BME280;19522;45.656;11.302;2023-05-01T03:33:04;98322.16;;;12.80;97.17
33161;BME280;19522;45.656;11.302;2023-05-01T03:35:29;98268.22;;;12.41;97.70
33161;BME280;19522;45.656;11.302;2023-05-01T03:37:55;98309.78;;;12.77;98.11
33161;BME280;19522;45.656;11.302;2023-05-01T03:40:20;98306.00;;;12.71;98.80
33161;BME280;19522;45.656;11.302;2023-05-01T03:42:46;98323.84;;;12.94;97.18
33161;BME280;19522;45.656;11.302;2023-05-01T03:45:11;98323.41;;;12.77;97.08
33161;BME280;19522;45.656;11.302;2023-05-01T03:47:37;98316.94;;;12.78;95.09
33161;BME280;19522;45.656;11.302;2023-05-01T03:50:03;98304.53;;;12.69;94.85
33161;BME280;19522;45.656;11.302;2023-05-01T03:52:29;98327.03;;;12.98;92.52
33161;BME280;19522;45.656;11.302;2023-05-01T03:54:54;98290.50;;;12.78;93.23
33161;BME280;19522;45.656;11.302;2023-05-01T03:57:20;98281.63;;;12.50;94.71
33161;BME280;19522;45.656;11.302;2023-05-01T03:59:47;98321.66;;;12.56;93.96
33161;BME280;19522;45.656;11.302;2023-05-01T04:02:13;98314.34;;;12.56;95.71
33161;BME280;19522;45.656;11.302;2023-05-01T04:04:38;98287.84;;;12.30;97.13
33161;BME280;19522;45.656;11.302;2023-05-01T04:07:04;98279.00;;;12.14;97.67
33161;BME280;19522;45.656;11.302;2023-05-01T04:09:29;98314.91;;;12.38;98.41
33161;BME280;19522;45.656;11.302;2023-05-01T04:11:55;98311.16;;;12.46;96.33
33161;BME280;19522;45.656;11.302;2023-05-01T04:14:20;98305.56;;;12.12;96.88
33161;BME280;19522;45.656;11.302;2023-05-01T04:16:46;98292.22;;;12.24;97.28
33161;BME280;19522;45.656;11.302;2023-05-01T04:19:12;98310.34;;;12.45;96.09
33161;BME280;19522;45.656;11.302;2023-05-01T04:21:37;98267.28;;;12.21;95.91
33161;BME280;19522;45.656;11.302;2023-05-01T04:24:03;98304.66;;;12.40;96.67
33161;BME280;19522;45.656;11.302;2023-05-01T04:26:29;98281.16;;;12.32;95.49
33161;BME280;19522;45.656;11.302;2023-05-01T04:28:55;98305.72;;;12.46;94.74
33161;BME280;19522;45.656;11.302;2023-05-01T04:31:20;98254.06;;;12.18;94.76
33161;BME280;19522;45.656;11.302;2023-05-01T04:33:46;98291.03;;;12.40;94.25
33161;BME280;19522;45.656;11.302;2023-05-01T04:36:12;98289.34;;;12.39;94.19
33161;BME280;19522;45.656;11.302;2023-05-01T04:38:37;98272.97;;;12.32;93.91
33161;BME280;19522;45.656;11.302;2023-05-01T04:41:06;98286.63;;;12.39;94.79
33161;BME280;19522;45.656;11.302;2023-05-01T04:43:31;98284.97;;;12.45;94.13
33161;BME280;19522;45.656;11.302;2023-05-01T04:45:57;98307.44;;;12.54;94.31
33161;BME280;19522;45.656;11.302;2023-05-01T04:48:22;98246.56;;;12.20;93.91
33161;BME280;19522;45.656;11.302;2023-05-01T04:50:47;98275.94;;;12.38;94.20
33161;BME280;19522;45.656;11.302;2023-05-01T04:53:13;98307.41;;;12.47;93.90
33161;BME280;19522;45.656;11.302;2023-05-01T04:55:39;98301.06;;;12.33;95.17
33161;BME280;19522;45.656;11.302;2023-05-01T04:58:05;98289.31;;;12.32;94.65
33161;BME280;19522;45.656;11.302;2023-05-01T05:00:30;98303.81;;;12.46;92.69
33161;BME280;19522;45.656;11.302;2023-05-01T05:02:56;98316.41;;;12.47;93.27
33161;BME280;19522;45.656;11.302;2023-05-01T05:05:21;98308.88;;;12.50;92.57
33161;BME280;19522;45.656;11.302;2023-05-01T05:07:47;98293.13;;;12.38;92.12
33161;BME280;19522;45.656;11.302;2023-05-01T05:10:13;98296.09;;;12.43;90.86
33161;BME280;19522;45.656;11.302;2023-05-01T05:12:39;98309.09;;;12.55;90.95
33161;BME280;19522;45.656;11.302;2023-05-01T05:15:05;98311.19;;;12.53;90.91
33161;BME280;19522;45.656;11.302;2023-05-01T05:17:31;98301.75;;;12.49;91.43
33161;BME280;19522;45.656;11.302;2023-05-01T05:19:56;98312.72;;;12.69;91.15
33161;BME280;19522;45.656;11.302;2023-05-01T05:22:22;98307.44;;;12.67;91.13
33161;BME280;19522;45.656;11.302;2023-05-01T05:24:54;98318.34;;;12.67;91.30
33161;BME280;19522;45.656;11.302;2023-05-01T05:27:20;98315.19;;;12.63;91.81
33161;BME280;19522;45.656;11.302;2023-05-01T05:29:45;98297.16;;;12.56;92.53
33161;BME280;19522;45.656;11.302;2023-05-01T05:32:11;98307.66;;;12.66;93.25
33161;BME280;19522;45.656;11.302;2023-05-01T05:34:37;98319.22;;;12.81;93.71
33161;BME280;19522;45.656;11.302;2023-05-01T05:37:03;98298.25;;;12.75;92.88
33161;BME280;19522;45.656;11.302;2023-05-01T05:39:29;98306.66;;;12.87;92.27
33161;BME280;19522;45.656;11.302;2023-05-01T05:41:55;98307.94;;;12.98;90.38
33161;BME280;19522;45.656;11.302;2023-05-01T05:44:21;98308.16;;;13.03;90.15
33161;BME280;19522;45.656;11.302;2023-05-01T05:46:47;98297.47;;;12.94;90.23
33161;BME280;19522;45.656;11.302;2023-05-01T05:49:12;98301.25;;;13.07;89.92
33161;BME280;19522;45.656;11.302;2023-05-01T05:51:38;98277.13;;;13.04;90.02
33161;BME280;19522;45.656;11.302;2023-05-01T05:54:03;98306.28;;;13.17;89.95
33161;BME280;19522;45.656;11.302;2023-05-01T05:56:29;98286.13;;;13.04;89.80
33161;BME280;19522;45.656;11.302;2023-05-01T05:58:54;98302.09;;;13.21;89.09
33161;BME280;19522;45.656;11.302;2023-05-01T06:01:20;98290.75;;;13.11;89.54
33161;BME280;19522;45.656;11.302;2023-05-01T06:03:46;98289.09;;;13.09;89.47
33161;BME280;19522;45.656;11.302;2023-05-01T06:06:11;98308.81;;;13.32;88.16
33161;BME280;19522;45.656;11.302;2023-05-01T06:08:37;98315.72;;;13.34;88.34
33161;BME280;19522;45.656;11.302;2023-05-01T06:11:02;98293.47;;;13.24;88.62
33161;BME280;19522;45.656;11.302;2023-05-01T06:13:28;98314.69;;;13.35;89.01
33161;BME280;19522;45.656;11.302;2023-05-01T06:15:53;98302.50;;;13.38;86.89
33161;BME280;19522;45.656;11.302;2023-05-01T06:18:19;98292.44;;;13.25;87.38
33161;BME280;19522;45.656;11.302;2023-05-01T06:20:45;98297.91;;;13.32;87.92
33161;BME280;19522;45.656;11.302;2023-05-01T06:23:12;98308.41;;;13.48;87.54
33161;BME280;19522;45.656;11.302;2023-05-01T06:25:38;98290.81;;;13.51;87.27
33161;BME280;19522;45.656;11.302;2023-05-01T06:28:04;98290.56;;;13.59;84.91
33161;BME280;19522;45.656;11.302;2023-05-01T06:30:29;98304.41;;;13.64;85.67
33161;BME280;19522;45.656;11.302;2023-05-01T06:32:55;98316.41;;;13.50;86.87
33161;BME280;19522;45.656;11.302;2023-05-01T06:35:21;98305.50;;;13.50;87.95
33161;BME280;19522;45.656;11.302;2023-05-01T06:37:46;98300.22;;;13.55;85.73
33161;BME280;19522;45.656;11.302;2023-05-01T06:40:12;98306.31;;;13.50;85.81
33161;BME280;19522;45.656;11.302;2023-05-01T06:42:38;98302.94;;;13.35;86.36
33161;BME280;19522;45.656;11.302;2023-05-01T06:45:07;98305.06;;;13.46;86.71
33161;BME280;19522;45.656;11.302;2023-05-01T06:47:33;98299.81;;;13.45;87.95
33161;BME280;19522;45.656;11.302;2023-05-01T06:49:59;98305.03;;;13.53;87.19
33161;BME280;19522;45.656;11.302;2023-05-01T06:52:24;98288.88;;;13.38;87.44
33161;BME280;19522;45.656;11.302;2023-05-01T06:54:50;98309.03;;;13.57;85.50
33161;BME280;19522;45.656;11.302;2023-05-01T06:57:15;98329.19;;;13.69;85.04
33161;BME280;19522;45.656;11.302;2023-05-01T06:59:41;98326.66;;;13.68;84.72
33161;BME280;19522;45.656;11.302;2023-05-01T07:02:07;98309.47;;;13.40;82.72
33161;BME280;19522;45.656;11.302;2023-05-01T07:04:32;98333.19;;;13.47;82.77
33161;BME280;19522;45.656;11.302;2023-05-01T07:06:58;98294.53;;;13.16;82.40
33161;BME280;19522;45.656;11.302;2023-05-01T07:09:23;98297.06;;;13.18;84.28
33161;BME280;19522;45.656;11.302;2023-05-01T07:11:49;98333.13;;;13.33;85.33
33161;BME280;19522;45.656;11.302;2023-05-01T07:14:14;98295.16;;;13.25;85.73
33161;BME280;19522;45.656;11.302;2023-05-01T07:16:40;98330.88;;;13.70;85.62
33161;BME280;19522;45.656;11.302;2023-05-01T07:19:05;98314.06;;;13.74;85.51
33161;BME280;19522;45.656;11.302;2023-05-01T07:21:31;98314.22;;;13.85;84.54
33161;BME280;19522;45.656;11.302;2023-05-01T07:23:57;98306.91;;;13.86;84.33
33161;BME280;19522;45.656;11.302;2023-05-01T07:26:25;98309.81;;;13.98;83.54
33161;BME280;19522;45.656;11.302;2023-05-01T07:28:51;98323.03;;;14.08;83.39
33161;BME280;19522;45.656;11.302;2023-05-01T07:31:16;98281.03;;;14.02;82.03
33161;BME280;19522;45.656;11.302;2023-05-01T07:33:42;98315.28;;;14.50;75.47
33161;BME280;19522;45.656;11.302;2023-05-01T07:36:07;98292.59;;;14.56;74.15
33161;BME280;19522;45.656;11.302;2023-05-01T07:38:33;98314.19;;;14.71;73.35
33161;BME280;19522;45.656;11.302;2023-05-01T07:40:59;98309.78;;;14.70;61.31
33161;BME280;19522;45.656;11.302;2023-05-01T07:43:24;98318.28;;;14.87;62.62
33161;BME280;19522;45.656;11.302;2023-05-01T07:45:58;98334.63;;;15.01;68.20
33161;BME280;19522;45.656;11.302;2023-05-01T07:48:25;98326.38;;;15.07;65.36
33161;BME280;19522;45.656;11.302;2023-05-01T07:50:51;98312.81;;;14.87;60.44
33161;BME280;19522;45.656;11.302;2023-05-01T07:53:17;98303.47;;;14.70;60.75
33161;BME280;19522;45.656;11.302;2023-05-01T07:55:43;98310.19;;;14.74;62.37
33161;BME280;19522;45.656;11.302;2023-05-01T07:58:08;98321.47;;;14.84;61.20
33161;BME280;19522;45.656;11.302;2023-05-01T08:00:34;98322.53;;;14.83;60.08
33161;BME280;19522;45.656;11.302;2023-05-01T08:03:00;98297.63;;;14.98;56.62
33161;BME280;19522;45.656;11.302;2023-05-01T08:05:26;98279.53;;;14.97;58.02
33161;BME280;19522;45.656;11.302;2023-05-01T08:07:51;98282.16;;;15.10;54.15
33161;BME280;19522;45.656;11.302;2023-05-01T08:10:17;98325.16;;;15.29;55.59
33161;BME280;19522;45.656;11.302;2023-05-01T08:12:42;98326.66;;;15.24;55.71
33161;BME280;19522;45.656;11.302;2023-05-01T08:15:08;98300.16;;;14.93;54.53
33161;BME280;19522;45.656;11.302;2023-05-01T08:17:34;98327.94;;;15.22;56.65
33161;BME280;19522;45.656;11.302;2023-05-01T08:20:00;98325.84;;;15.49;56.80
33161;BME280;19522;45.656;11.302;2023-05-01T08:22:25;98303.28;;;15.29;54.10
33161;BME280;19522;45.656;11.302;2023-05-01T08:24:51;98316.63;;;15.43;55.20
33161;BME280;19522;45.656;11.302;2023-05-01T08:27:17;98322.72;;;15.46;54.76
33161;BME280;19522;45.656;11.302;2023-05-01T08:29:42;98321.88;;;15.45;53.53
33161;BME280;19522;45.656;11.302;2023-05-01T08:32:08;98290.75;;;15.39;52.96
33161;BME280;19522;45.656;11.302;2023-05-01T08:34:34;98273.88;;;15.24;53.10
33161;BME280;19522;45.656;11.302;2023-05-01T08:37:00;98329.88;;;15.47;53.04
33161;BME280;19522;45.656;11.302;2023-05-01T08:39:26;98310.63;;;15.53;53.13
33161;BME280;19522;45.656;11.302;2023-05-01T08:41:52;98262.97;;;15.42;55.59
33161;BME280;19522;45.656;11.302;2023-05-01T08:44:19;98329.47;;;15.94;53.64
33161;BME280;19522;45.656;11.302;2023-05-01T08:49:33;98322.63;;;16.03;54.35
33161;BME280;19522;45.656;11.302;2023-05-01T08:52:01;98314.34;;;15.91;52.71
33161;BME280;19522;45.656;11.302;2023-05-01T08:54:28;98329.09;;;15.83;50.01
33161;BME280;19522;45.656;11.302;2023-05-01T08:56:59;98321.91;;;15.64;52.68
33161;BME280;19522;45.656;11.302;2023-05-01T08:59:26;98327.25;;;15.84;53.30
33161;BME280;19522;45.656;11.302;2023-05-01T09:01:55;98305.69;;;15.94;54.48
33161;BME280;19522;45.656;11.302;2023-05-01T09:04:21;98318.75;;;15.92;52.41
33161;BME280;19522;45.656;11.302;2023-05-01T09:06:47;98315.94;;;15.99;51.52
33161;BME280;19522;45.656;11.302;2023-05-01T09:09:13;98318.81;;;15.85;51.42
33161;BME280;19522;45.656;11.302;2023-05-01T09:11:39;98324.78;;;16.01;53.57
33161;BME280;19522;45.656;11.302;2023-05-01T09:14:05;98292.75;;;16.01;52.51
33161;BME280;19522;45.656;11.302;2023-05-01T09:16:32;98317.25;;;16.15;51.37
33161;BME280;19522;45.656;11.302;2023-05-01T09:18:58;98304.75;;;16.19;49.78
33161;BME280;19522;45.656;11.302;2023-05-01T09:21:25;98321.50;;;16.11;51.25
33161;BME280;19522;45.656;11.302;2023-05-01T09:23:51;98326.75;;;16.49;52.34
33161;BME280;19522;45.656;11.302;2023-05-01T09:26:18;98325.94;;;16.79;51.98
33161;BME280;19522;45.656;11.302;2023-05-01T09:28:45;98324.84;;;16.99;51.12
33161;BME280;19522;45.656;11.302;2023-05-01T09:31:29;98314.75;;;17.11;49.64
33161;BME280;19522;45.656;11.302;2023-05-01T09:34:03;98317.22;;;17.01;49.30
33161;BME280;19522;45.656;11.302;2023-05-01T09:36:31;98328.81;;;17.03;50.13
33161;BME280;19522;45.656;11.302;2023-05-01T09:38:58;98317.38;;;17.06;51.67
33161;BME280;19522;45.656;11.302;2023-05-01T09:41:27;98319.53;;;16.86;50.91
33161;BME280;19522;45.656;11.302;2023-05-01T09:43:57;98316.34;;;16.70;51.24
33161;BME280;19522;45.656;11.302;2023-05-01T09:46:24;98258.34;;;16.24;50.52
33161;BME280;19522;45.656;11.302;2023-05-01T09:49:01;98319.28;;;16.57;51.54
33161;BME280;19522;45.656;11.302;2023-05-01T09:51:29;98306.03;;;16.54;53.79
33161;BME280;19522;45.656;11.302;2023-05-01T09:53:56;98302.63;;;16.70;51.55
33161;BME280;19522;45.656;11.302;2023-05-01T09:56:22;98302.31;;;16.97;52.34
33161;BME280;19522;45.656;11.302;2023-05-01T09:58:52;98290.16;;;16.74;49.06
33161;BME280;19522;45.656;11.302;2023-05-01T10:01:36;98300.22;;;17.11;49.34
33161;BME280;19522;45.656;11.302;2023-05-01T10:04:02;98297.75;;;17.45;51.42
33161;BME280;19522;45.656;11.302;2023-05-01T10:06:28;98278.31;;;17.58;50.48
33161;BME280;19522;45.656;11.302;2023-05-01T10:08:53;98301.97;;;17.71;51.82
33161;BME280;19522;45.656;11.302;2023-05-01T10:11:19;98294.47;;;18.02;50.07
33161;BME280;19522;45.656;11.302;2023-05-01T10:14:04;98293.34;;;18.27;49.57
33161;BME280;19522;45.656;11.302;2023-05-01T10:16:32;98286.00;;;18.45;48.88
33161;BME280;19522;45.656;11.302;2023-05-01T10:18:58;98262.19;;;18.50;48.88
33161;BME280;19522;45.656;11.302;2023-05-01T10:21:24;98277.34;;;18.82;47.38
33161;BME280;19522;45.656;11.302;2023-05-01T10:23:51;98275.41;;;18.94;47.30
33161;BME280;19522;45.656;11.302;2023-05-01T10:26:17;98275.59;;;19.05;46.95
33161;BME280;19522;45.656;11.302;2023-05-01T10:28:46;98232.47;;;18.93;46.53
33161;BME280;19522;45.656;11.302;2023-05-01T10:31:12;98279.31;;;19.27;45.95
33161;BME280;19522;45.656;11.302;2023-05-01T10:33:38;98248.84;;;19.34;45.42
33161;BME280;19522;45.656;11.302;2023-05-01T10:36:05;98235.91;;;19.00;43.73
33161;BME280;19522;45.656;11.302;2023-05-01T10:38:37;98259.63;;;18.90;46.25
33161;BME280;19522;45.656;11.302;2023-05-01T10:41:02;98241.78;;;18.75;44.85
33161;BME280;19522;45.656;11.302;2023-05-01T10:43:30;98254.03;;;19.13;46.33
33161;BME280;19522;45.656;11.302;2023-05-01T10:48:54;98248.66;;;19.58;43.78
33161;BME280;19522;45.656;11.302;2023-05-01T10:51:24;98257.69;;;19.53;43.34
33161;BME280;19522;45.656;11.302;2023-05-01T10:59:04;98254.84;;;19.14;43.88
33161;BME280;19522;45.656;11.302;2023-05-01T11:01:32;98247.75;;;19.01;42.28
33161;BME280;19522;45.656;11.302;2023-05-01T11:04:05;98238.50;;;19.07;41.11
33161;BME280;19522;45.656;11.302;2023-05-01T11:06:33;98187.88;;;18.62;43.60
33161;BME280;19522;45.656;11.302;2023-05-01T11:09:00;98232.91;;;19.19;42.80
33161;BME280;19522;45.656;11.302;2023-05-01T11:14:00;98239.06;;;18.63;43.05
33161;BME280;19522;45.656;11.302;2023-05-01T11:18:59;98236.31;;;18.34;45.83
33161;BME280;19522;45.656;11.302;2023-05-01T11:21:29;98209.66;;;18.64;45.16
33161;BME280;19522;45.656;11.302;2023-05-01T11:24:03;98234.25;;;18.99;42.08
33161;BME280;19522;45.656;11.302;2023-05-01T11:26:29;98199.03;;;19.02;43.66
33161;BME280;19522;45.656;11.302;2023-05-01T11:28:59;98218.75;;;18.81;40.95
33161;BME280;19522;45.656;11.302;2023-05-01T11:31:26;98213.34;;;18.41;43.60
33161;BME280;19522;45.656;11.302;2023-05-01T11:33:57;98216.84;;;18.24;42.10
33161;BME280;19522;45.656;11.302;2023-05-01T11:36:24;98227.53;;;18.09;42.62
33161;BME280;19522;45.656;11.302;2023-05-01T11:38:52;98227.41;;;17.91;42.91
33161;BME280;19522;45.656;11.302;2023-05-01T11:41:21;98201.63;;;17.92;43.21
33161;BME280;19522;45.656;11.302;2023-05-01T11:43:52;98223.75;;;17.98;43.95
33161;BME280;19522;45.656;11.302;2023-05-01T11:46:30;98219.19;;;17.91;43.74
33161;BME280;19522;45.656;11.302;2023-05-01T11:48:58;98192.75;;;18.14;44.49
33161;BME280;19522;45.656;11.302;2023-05-01T11:51:24;98208.53;;;18.48;43.96
33161;BME280;19522;45.656;11.302;2023-05-01T11:54:04;98195.41;;;18.84;45.46
33161;BME280;19522;45.656;11.302;2023-05-01T11:56:31;98199.97;;;19.24;43.87
33161;BME280;19522;45.656;11.302;2023-05-01T11:59:00;98211.47;;;19.21;40.68
33161;BME280;19522;45.656;11.302;2023-05-01T12:01:38;98178.66;;;18.85;41.05
33161;BME280;19522;45.656;11.302;2023-05-01T12:04:05;98209.63;;;19.27;43.43
33161;BME280;19522;45.656;11.302;2023-05-01T12:06:39;98204.81;;;19.17;39.91
33161;BME280;19522;45.656;11.302;2023-05-01T12:09:09;98200.47;;;19.21;40.13
33161;BME280;19522;45.656;11.302;2023-05-01T12:11:35;98197.38;;;19.35;41.00
33161;BME280;19522;45.656;11.302;2023-05-01T12:14:02;98200.34;;;19.50;39.16
33161;BME280;19522;45.656;11.302;2023-05-01T12:16:29;98204.75;;;19.85;40.22
33161;BME280;19522;45.656;11.302;2023-05-01T12:18:55;98183.84;;;19.89;39.44
33161;BME280;19522;45.656;11.302;2023-05-01T12:21:21;98193.41;;;20.26;39.80
33161;BME280;19522;45.656;11.302;2023-05-01T12:23:46;98190.88;;;20.47;40.17
33161;BME280;19522;45.656;11.302;2023-05-01T12:26:23;98193.00;;;20.17;38.43
33161;BME280;19522;45.656;11.302;2023-05-01T12:28:56;98194.13;;;19.77;38.90
33161;BME280;19522;45.656;11.302;2023-05-01T12:31:23;98170.59;;;18.79;39.39
33161;BME280;19522;45.656;11.302;2023-05-01T12:34:00;98189.25;;;18.77;40.11
33161;BME280;19522;45.656;11.302;2023-05-01T12:36:27;98192.66;;;18.38;40.84
33161;BME280;19522;45.656;11.302;2023-05-01T12:38:56;98189.06;;;18.09;40.92
33161;BME280;19522;45.656;11.302;2023-05-01T12:41:44;98191.81;;;18.09;41.13
33161;BME280;19522;45.656;11.302;2023-05-01T12:46:45;98188.44;;;18.18;42.57
33161;BME280;19522;45.656;11.302;2023-05-01T12:49:17;98183.84;;;18.36;42.29
33161;BME280;19522;45.656;11.302;2023-05-01T12:51:47;98177.91;;;18.27;41.40
33161;BME280;19522;45.656;11.302;2023-05-01T12:54:25;98187.50;;;18.71;41.83
33161;BME280;19522;45.656;11.302;2023-05-01T12:56:52;98184.63;;;18.94;42.30
33161;BME280;19522;45.656;11.302;2023-05-01T12:59:25;98185.78;;;19.15;42.57
33161;BME280;19522;45.656;11.302;2023-05-01T13:02:16;98193.88;;;19.22;40.17
33161;BME280;19522;45.656;11.302;2023-05-01T13:04:45;98177.63;;;19.38;41.41
33161;BME280;19522;45.656;11.302;2023-05-01T13:07:18;98167.59;;;18.80;38.45
33161;BME280;19522;45.656;11.302;2023-05-01T13:09:54;98185.03;;;19.20;39.73
33161;BME280;19522;45.656;11.302;2023-05-01T13:12:21;98193.59;;;19.41;40.23
33161;BME280;19522;45.656;11.302;2023-05-01T13:14:48;98184.53;;;19.23;39.30
33161;BME280;19522;45.656;11.302;2023-05-01T13:17:28;98169.09;;;19.39;41.00
33161;BME280;19522;45.656;11.302;2023-05-01T13:20:02;98176.63;;;19.66;39.87
33161;BME280;19522;45.656;11.302;2023-05-01T13:22:29;98184.97;;;19.15;40.88
33161;BME280;19522;45.656;11.302;2023-05-01T13:24:54;98184.00;;;19.43;39.69
33161;BME280;19522;45.656;11.302;2023-05-01T13:27:21;98155.34;;;19.22;38.42
33161;BME280;19522;45.656;11.302;2023-05-01T13:29:55;98165.44;;;19.34;37.18